createdAt,value
2022-09-06T00:00:00.272Z,59
2022-09-06T00:05:00.132Z,59
2022-09-06T00:10:00.327Z,59
2022-09-06T00:15:00.130Z,60
2022-09-06T00:20:00.249Z,60
2022-09-06T00:25:00.241Z,60
2022-09-06T00:30:00.225Z,60
2022-09-06T00:35:00.163Z,60
2022-09-06T00:40:00.490Z,60
2022-09-06T00:45:00.133Z,60
2022-09-06T00:50:00.238Z,60
2022-09-06T00:55:00.193Z,60
2022-09-06T01:00:00.291Z,60
2022-09-06T01:05:00.218Z,60
2022-09-06T01:10:00.278Z,60
2022-09-06T01:15:00.253Z,60
2022-09-06T01:20:00.195Z,60
2022-09-06T01:25:00.213Z,60
2022-09-06T01:30:00.288Z,60
2022-09-06T01:35:00.153Z,60
2022-09-06T01:40:00.357Z,60
2022-09-06T01:45:00.145Z,60
2022-09-06T01:50:00.232Z,60
2022-09-06T01:55:00.260Z,60
2022-09-06T02:00:00.289Z,60
2022-09-06T02:05:00.150Z,60
2022-09-06T02:10:00.257Z,60
2022-09-06T02:15:00.213Z,60
2022-09-06T02:20:00.222Z,60
2022-09-06T02:25:00.142Z,60
2022-09-06T02:30:00.249Z,60
2022-09-06T02:35:00.228Z,60
2022-09-06T02:40:00.379Z,60
2022-09-06T02:45:00.229Z,60
2022-09-06T02:50:00.247Z,60
2022-09-06T02:55:00.136Z,60
2022-09-06T03:00:00.278Z,60
2022-09-06T03:05:00.218Z,60
2022-09-06T03:10:00.280Z,60
2022-09-06T03:15:00.313Z,60
2022-09-06T03:20:00.215Z,60
2022-09-06T03:25:00.215Z,60
2022-09-06T03:30:00.259Z,60
2022-09-06T03:35:00.233Z,60
2022-09-06T03:40:00.447Z,60
2022-09-06T03:45:00.272Z,60
2022-09-06T03:50:00.259Z,60
2022-09-06T03:55:00.258Z,60
2022-09-06T04:00:00.262Z,60
2022-09-06T04:05:00.268Z,60
2022-09-06T04:10:00.244Z,60
2022-09-06T04:15:00.307Z,60
2022-09-06T04:20:00.239Z,60
2022-09-06T04:25:00.289Z,61
2022-09-06T04:30:00.315Z,61
2022-09-06T04:35:00.261Z,61
2022-09-06T04:40:00.484Z,61
2022-09-06T04:45:00.234Z,61
2022-09-06T04:50:00.303Z,61
2022-09-06T04:55:00.216Z,61
2022-09-06T05:00:00.307Z,61
2022-09-06T05:05:00.270Z,62
2022-09-06T05:10:00.318Z,63
2022-09-06T05:15:00.276Z,63
2022-09-06T05:20:00.215Z,63
2022-09-06T05:25:00.187Z,64
2022-09-06T05:30:00.338Z,64
2022-09-06T05:35:00.224Z,64
2022-09-06T05:40:00.423Z,64
2022-09-06T05:45:00.304Z,64
2022-09-06T05:50:00.259Z,64
2022-09-06T05:55:00.322Z,65
2022-09-06T06:00:00.266Z,64
2022-09-06T06:05:00.358Z,64
2022-09-06T06:10:00.288Z,64
2022-09-06T06:15:00.289Z,65
2022-09-06T06:20:00.272Z,65
2022-09-06T06:25:00.269Z,65
2022-09-06T06:30:00.349Z,65
2022-09-06T06:35:00.263Z,65
2022-09-06T06:40:00.434Z,65
2022-09-06T06:45:00.242Z,65
2022-09-06T06:50:00.303Z,65
2022-09-06T06:55:00.287Z,65
2022-09-06T07:00:00.388Z,65
2022-09-06T07:05:00.696Z,66
2022-09-06T07:15:00.271Z,66
2022-09-06T07:20:16.067Z,65
2022-09-06T07:25:00.253Z,65
2022-09-06T07:30:00.306Z,65
2022-09-06T07:35:00.312Z,65
2022-09-06T07:40:00.416Z,65
2022-09-06T07:45:00.236Z,65
2022-09-06T07:55:00.247Z,64
2022-09-06T08:00:00.324Z,64
2022-09-06T08:05:00.275Z,64
2022-09-06T08:10:00.370Z,64
2022-09-06T08:15:00.299Z,63
2022-09-06T08:20:05.233Z,63
2022-09-06T08:25:00.239Z,63
2022-09-06T08:30:00.280Z,62
2022-09-06T08:35:00.282Z,62
2022-09-06T08:40:00.409Z,62
2022-09-06T08:45:00.227Z,61
2022-09-06T08:50:00.303Z,61
2022-09-06T08:55:00.253Z,61
2022-09-06T09:00:00.284Z,60
2022-09-06T09:05:00.289Z,60
2022-09-06T09:10:00.323Z,60
2022-09-06T09:15:00.226Z,60
2022-09-06T09:20:00.294Z,59
2022-09-06T09:25:00.205Z,59
2022-09-06T09:35:00.319Z,58
2022-09-06T09:40:00.465Z,58
2022-09-06T09:45:00.281Z,58
2022-09-06T09:50:00.283Z,58
2022-09-06T09:55:00.261Z,57
2022-09-06T10:00:00.367Z,57
2022-09-06T10:05:00.280Z,56
2022-09-06T10:10:00.280Z,55
2022-09-06T10:15:02.493Z,55
2022-09-06T10:20:00.322Z,54
2022-09-06T10:25:00.284Z,54
2022-09-06T10:30:00.246Z,54
2022-09-06T10:35:00.294Z,53
2022-09-06T10:40:00.395Z,52
2022-09-06T10:45:00.295Z,53
2022-09-06T10:50:00.296Z,52
2022-09-06T10:55:00.212Z,52
2022-09-06T11:00:00.260Z,52
2022-09-06T11:10:00.391Z,52
2022-09-06T11:15:00.249Z,52
2022-09-06T11:20:00.226Z,52
2022-09-06T11:25:00.261Z,51
2022-09-06T11:30:00.272Z,50
2022-09-06T11:35:00.265Z,50
2022-09-06T11:40:29.890Z,50
2022-09-06T11:45:00.185Z,50
2022-09-06T11:50:00.270Z,49
2022-09-06T11:55:00.203Z,49
2022-09-06T12:00:00.461Z,48
2022-09-06T12:05:00.737Z,48
2022-09-06T12:10:00.280Z,49
2022-09-06T12:15:00.191Z,48
2022-09-06T12:20:00.244Z,48
2022-09-06T12:25:00.261Z,47
2022-09-06T12:30:00.289Z,48
2022-09-06T12:40:00.418Z,47
2022-09-06T12:45:00.233Z,47
2022-09-06T12:50:00.260Z,47
2022-09-06T12:55:00.275Z,46
2022-09-06T13:00:00.358Z,46
2022-09-06T13:05:00.284Z,46
2022-09-06T13:10:00.356Z,46
2022-09-06T13:15:00.272Z,45
2022-09-06T13:20:00.298Z,45
2022-09-06T13:25:00.317Z,45
2022-09-06T13:30:00.301Z,45
2022-09-06T13:35:00.282Z,45
2022-09-06T13:40:00.434Z,44
2022-09-06T13:45:02.293Z,43
2022-09-06T13:50:00.430Z,44
2022-09-06T13:55:00.269Z,44
2022-09-06T14:00:00.437Z,43
2022-09-06T14:05:00.223Z,43
2022-09-06T14:10:00.403Z,43
2022-09-06T14:15:00.271Z,43
2022-09-06T14:20:00.410Z,43
2022-09-06T14:25:00.264Z,43
2022-09-06T14:30:00.384Z,43
2022-09-06T14:35:00.261Z,42
2022-09-06T14:40:00.481Z,43
2022-09-06T14:45:00.271Z,43
2022-09-06T14:50:00.298Z,42
2022-09-06T14:55:00.292Z,41
2022-09-06T15:00:00.509Z,41
2022-09-06T15:05:00.280Z,41
2022-09-06T15:10:00.230Z,41
2022-09-06T15:15:00.231Z,42
2022-09-06T15:20:00.271Z,42
2022-09-06T15:25:00.239Z,41
2022-09-06T15:30:00.310Z,41
2022-09-06T15:35:04.324Z,41
2022-09-06T15:40:00.322Z,41
2022-09-06T15:45:00.221Z,41
2022-09-06T15:50:00.272Z,40
2022-09-06T15:55:00.255Z,40
2022-09-06T16:00:00.286Z,41
2022-09-06T16:05:00.315Z,40
2022-09-06T16:10:00.316Z,40
2022-09-06T16:15:00.260Z,38
2022-09-06T16:20:00.322Z,39
2022-09-06T16:25:00.211Z,39
2022-09-06T16:30:00.737Z,39
2022-09-06T16:35:00.228Z,39
2022-09-06T16:40:00.390Z,39
2022-09-06T16:45:00.268Z,39
2022-09-06T16:50:00.300Z,39
2022-09-06T16:55:00.205Z,39
2022-09-06T17:00:00.304Z,39
2022-09-06T17:05:00.220Z,39
2022-09-06T17:10:00.242Z,39
2022-09-06T17:15:00.192Z,40
2022-09-06T17:20:00.213Z,40
2022-09-06T17:25:00.304Z,40
2022-09-06T17:30:05.520Z,41
2022-09-06T17:35:00.217Z,41
2022-09-06T17:40:00.377Z,41
2022-09-06T17:45:00.217Z,42
2022-09-06T17:50:00.266Z,42
2022-09-06T17:55:00.278Z,43
2022-09-06T18:00:00.323Z,43
2022-09-06T18:05:00.292Z,43
2022-09-06T18:10:00.284Z,43
2022-09-06T18:15:00.246Z,44
2022-09-06T18:20:00.283Z,45
2022-09-06T18:25:00.266Z,45
2022-09-06T18:30:00.331Z,45
2022-09-06T18:35:00.186Z,45
2022-09-06T18:40:00.329Z,45
2022-09-06T18:45:00.290Z,46
2022-09-06T18:50:00.229Z,46
2022-09-06T18:55:00.241Z,46
2022-09-06T19:00:00.257Z,46
2022-09-06T19:05:00.361Z,47
2022-09-06T19:10:00.331Z,47
2022-09-06T19:15:00.267Z,47
2022-09-06T19:20:00.282Z,48
2022-09-06T19:25:00.319Z,48
2022-09-06T19:30:00.299Z,48
2022-09-06T19:35:00.331Z,49
2022-09-06T19:40:00.419Z,49
2022-09-06T19:45:00.248Z,49
2022-09-06T19:50:00.292Z,49
2022-09-06T19:55:00.270Z,49
2022-09-06T20:00:00.347Z,49
2022-09-06T20:05:00.275Z,50
2022-09-06T20:10:00.247Z,50
2022-09-06T20:15:00.211Z,50
2022-09-06T20:20:00.287Z,50
2022-09-06T20:25:00.211Z,51
2022-09-06T20:30:00.247Z,51
2022-09-06T20:35:00.311Z,51
2022-09-06T20:40:00.409Z,51
2022-09-06T20:45:00.305Z,51
2022-09-06T20:50:00.261Z,52
2022-09-06T20:55:00.316Z,52
2022-09-06T21:00:00.247Z,52
2022-09-06T21:05:00.227Z,53
2022-09-06T21:10:00.290Z,53
2022-09-06T21:15:00.234Z,54
2022-09-06T21:20:00.242Z,54
2022-09-06T21:25:00.205Z,54
2022-09-06T21:30:00.258Z,54
2022-09-06T21:35:00.130Z,54
2022-09-06T21:40:00.392Z,54
2022-09-06T21:45:00.225Z,55
2022-09-06T21:50:00.259Z,55
2022-09-06T21:55:00.192Z,55
2022-09-06T22:00:00.338Z,55
2022-09-06T22:05:00.158Z,55
2022-09-06T22:10:00.249Z,56
2022-09-06T22:15:00.151Z,56
2022-09-06T22:20:00.309Z,56
2022-09-06T22:25:00.151Z,56
2022-09-06T22:30:00.288Z,56
2022-09-06T22:35:00.268Z,56
2022-09-06T22:40:00.429Z,56
2022-09-06T22:45:00.207Z,56
2022-09-06T22:50:00.325Z,56
2022-09-06T22:55:00.231Z,56
2022-09-06T23:00:00.268Z,56
2022-09-06T23:05:00.305Z,56
2022-09-06T23:10:00.292Z,56
2022-09-06T23:15:00.134Z,56
2022-09-06T23:20:00.293Z,56
2022-09-06T23:25:00.133Z,56
2022-09-06T23:30:00.261Z,56
2022-09-06T23:35:00.238Z,57
2022-09-06T23:40:00.328Z,57
2022-09-06T23:45:00.166Z,57
2022-09-06T23:50:00.280Z,57
2022-09-06T23:55:00.148Z,57
